Terminal Aerodrome Forecast
Issued by NWS

Home | Current Version | Previous Version | Graphics & Text | Print | Product List | Glossary On
Versions: 1 2 3 4 5 6 7 8 9 10 11 12 13 14 15 16 17 18 19 20 21 22 23
071
FTUS43 KBIS 061120
TAFDIK
TAF
KDIK 061120Z 0612/0712 30026G34KT 2SM BLSN OVC035
     FM070000 30019G27KT 6SM BLSN OVC045
     FM070300 30018KT P6SM OVC050
     FM070700 30018KT P6SM BKN025=

USA.gov is the U.S. government's official web portal to all federal, state and local government web resources and services.